sensor_id;sensor_type;location;lat;lon;timestamp;pressure;altitude;pressure_sealevel;temperature
23992;BMP280;12205;50.600;4.608;2023-07-08T00:01:12;100271.06;;;20.08
23992;BMP280;12205;50.600;4.608;2023-07-08T00:03:40;100262.25;;;20.03
23992;BMP280;12205;50.600;4.608;2023-07-08T00:06:20;100263.06;;;20.00
23992;BMP280;12205;50.600;4.608;2023-07-08T00:08:48;100269.38;;;19.97
23992;BMP280;12205;50.600;4.608;2023-07-08T00:11:17;100263.22;;;19.93
23992;BMP280;12205;50.600;4.608;2023-07-08T00:13:45;100265.63;;;19.91
23992;BMP280;12205;50.600;4.608;2023-07-08T00:16:16;100262.53;;;19.89
23992;BMP280;12205;50.600;4.608;2023-07-08T00:18:44;100257.97;;;19.86
23992;BMP280;12205;50.600;4.608;2023-07-08T00:21:14;100254.94;;;19.84
23992;BMP280;12205;50.600;4.608;2023-07-08T00:23:44;100255.75;;;19.81
23992;BMP280;12205;50.600;4.608;2023-07-08T00:26:21;100246.53;;;19.78
23992;BMP280;12205;50.600;4.608;2023-07-08T00:28:51;100258.16;;;19.79
23992;BMP280;12205;50.600;4.608;2023-07-08T00:31:20;100252.03;;;19.75
23992;BMP280;12205;50.600;4.608;2023-07-08T00:33:50;100249.06;;;19.69
23992;BMP280;12205;50.600;4.608;2023-07-08T00:36:18;100248.69;;;19.67
23992;BMP280;12205;50.600;4.608;2023-07-08T00:38:45;100242.59;;;19.63
23992;BMP280;12205;50.600;4.608;2023-07-08T00:41:18;100236.06;;;19.60
23992;BMP280;12205;50.600;4.608;2023-07-08T00:43:51;100236.16;;;19.57
23992;BMP280;12205;50.600;4.608;2023-07-08T00:46:34;100238.09;;;19.56
23992;BMP280;12205;50.600;4.608;2023-07-08T00:49:26;100237.41;;;19.52
23992;BMP280;12205;50.600;4.608;2023-07-08T00:51:55;100230.09;;;19.49
23992;BMP280;12205;50.600;4.608;2023-07-08T00:54:22;100236.38;;;19.46
23992;BMP280;12205;50.600;4.608;2023-07-08T00:56:54;100227.44;;;19.45
23992;BMP280;12205;50.600;4.608;2023-07-08T00:59:31;100225.16;;;19.44
23992;BMP280;12205;50.600;4.608;2023-07-08T01:02:04;100227.88;;;19.44
23992;BMP280;12205;50.600;4.608;2023-07-08T01:04:37;100225.16;;;19.44
23992;BMP280;12205;50.600;4.608;2023-07-08T01:07:10;100216.69;;;19.42
23992;BMP280;12205;50.600;4.608;2023-07-08T01:09:44;100212.44;;;19.41
23992;BMP280;12205;50.600;4.608;2023-07-08T01:12:19;100208.63;;;19.38
23992;BMP280;12205;50.600;4.608;2023-07-08T01:14:51;100211.41;;;19.35
23992;BMP280;12205;50.600;4.608;2023-07-08T01:17:21;100207.19;;;19.34
23992;BMP280;12205;50.600;4.608;2023-07-08T01:19:50;100216.91;;;19.31
23992;BMP280;12205;50.600;4.608;2023-07-08T01:22:22;100217.75;;;19.28
23992;BMP280;12205;50.600;4.608;2023-07-08T01:24:49;100222.06;;;19.25
23992;BMP280;12205;50.600;4.608;2023-07-08T01:27:19;100228.31;;;19.22
23992;BMP280;12205;50.600;4.608;2023-07-08T01:29:47;100224.50;;;19.20
23992;BMP280;12205;50.600;4.608;2023-07-08T01:32:15;100220.25;;;19.19
23992;BMP280;12205;50.600;4.608;2023-07-08T01:34:45;100220.66;;;19.17
23992;BMP280;12205;50.600;4.608;2023-07-08T01:37:35;100214.91;;;19.15
23992;BMP280;12205;50.600;4.608;2023-07-08T01:40:32;100208.38;;;19.13
23992;BMP280;12205;50.600;4.608;2023-07-08T01:43:01;100208.78;;;19.11
23992;BMP280;12205;50.600;4.608;2023-07-08T01:45:34;100199.16;;;19.10
23992;BMP280;12205;50.600;4.608;2023-07-08T01:48:10;100196.91;;;19.05
23992;BMP280;12205;50.600;4.608;2023-07-08T01:50:42;100198.50;;;19.02
23992;BMP280;12205;50.600;4.608;2023-07-08T01:53:15;100191.56;;;19.01
23992;BMP280;12205;50.600;4.608;2023-07-08T01:55:43;100185.44;;;18.97
23992;BMP280;12205;50.600;4.608;2023-07-08T01:58:10;100190.13;;;18.97
23992;BMP280;12205;50.600;4.608;2023-07-08T02:00:37;100187.88;;;18.92
23992;BMP280;12205;50.600;4.608;2023-07-08T02:03:05;100204.13;;;18.92
23992;BMP280;12205;50.600;4.608;2023-07-08T02:05:32;100205.72;;;18.89
23992;BMP280;12205;50.600;4.608;2023-07-08T02:08:01;100201.13;;;18.86
23992;BMP280;12205;50.600;4.608;2023-07-08T02:10:30;100202.00;;;18.83
23992;BMP280;12205;50.600;4.608;2023-07-08T02:13:00;100202.81;;;18.80
23992;BMP280;12205;50.600;4.608;2023-07-08T02:15:27;100195.91;;;18.75
23992;BMP280;12205;50.600;4.608;2023-07-08T02:17:54;100195.22;;;18.71
23992;BMP280;12205;50.600;4.608;2023-07-08T02:20:22;100197.59;;;18.69
23992;BMP280;12205;50.600;4.608;2023-07-08T02:22:49;100203.00;;;18.69
23992;BMP280;12205;50.600;4.608;2023-07-08T02:25:16;100200.72;;;18.67
23992;BMP280;12205;50.600;4.608;2023-07-08T02:27:45;100208.06;;;18.67
23992;BMP280;12205;50.600;4.608;2023-07-08T02:30:13;100216.19;;;18.67
23992;BMP280;12205;50.600;4.608;2023-07-08T02:32:40;100210.00;;;18.66
23992;BMP280;12205;50.600;4.608;2023-07-08T02:35:08;100214.66;;;18.66
23992;BMP280;12205;50.600;4.608;2023-07-08T02:37:36;100217.38;;;18.66
23992;BMP280;12205;50.600;4.608;2023-07-08T02:40:03;100214.66;;;18.66
23992;BMP280;12205;50.600;4.608;2023-07-08T02:42:32;100219.28;;;18.65
23992;BMP280;12205;50.600;4.608;2023-07-08T02:45:00;100216.59;;;18.65
23992;BMP280;12205;50.600;4.608;2023-07-08T02:47:28;100214.66;;;18.66
23992;BMP280;12205;50.600;4.608;2023-07-08T02:49:55;100210.41;;;18.65
23992;BMP280;12205;50.600;4.608;2023-07-08T02:52:22;100213.13;;;18.65
23992;BMP280;12205;50.600;4.608;2023-07-08T02:54:49;100213.13;;;18.65
23992;BMP280;12205;50.600;4.608;2023-07-08T02:57:16;100213.13;;;18.65
23992;BMP280;12205;50.600;4.608;2023-07-08T02:59:43;100213.88;;;18.65
23992;BMP280;12205;50.600;4.608;2023-07-08T03:02:11;100218.53;;;18.65
23992;BMP280;12205;50.600;4.608;2023-07-08T03:04:39;100222.78;;;18.66
23992;BMP280;12205;50.600;4.608;2023-07-08T03:07:08;100218.53;;;18.65
23992;BMP280;12205;50.600;4.608;2023-07-08T03:09:37;100211.16;;;18.65
23992;BMP280;12205;50.600;4.608;2023-07-08T03:12:07;100213.13;;;18.65
23992;BMP280;12205;50.600;4.608;2023-07-08T03:14:34;100211.59;;;18.64
23992;BMP280;12205;50.600;4.608;2023-07-08T03:17:03;100210.41;;;18.65
23992;BMP280;12205;50.600;4.608;2023-07-08T03:19:31;100204.66;;;18.63
23992;BMP280;12205;50.600;4.608;2023-07-08T03:21:58;100205.06;;;18.61
23992;BMP280;12205;50.600;4.608;2023-07-08T03:24:28;100216.28;;;18.60
23992;BMP280;12205;50.600;4.608;2023-07-08T03:26:58;100209.78;;;18.57
23992;BMP280;12205;50.600;4.608;2023-07-08T03:29:31;100216.38;;;18.56
23992;BMP280;12205;50.600;4.608;2023-07-08T03:31:59;100213.31;;;18.54
23992;BMP280;12205;50.600;4.608;2023-07-08T03:34:27;100214.13;;;18.51
23992;BMP280;12205;50.600;4.608;2023-07-08T03:36:56;100211.88;;;18.50
23992;BMP280;12205;50.600;4.608;2023-07-08T03:39:24;100212.66;;;18.46
23992;BMP280;12205;50.600;4.608;2023-07-08T03:41:53;100216.53;;;18.45
23992;BMP280;12205;50.600;4.608;2023-07-08T03:44:20;100207.72;;;18.41
23992;BMP280;12205;50.600;4.608;2023-07-08T03:46:49;100204.31;;;18.37
23992;BMP280;12205;50.600;4.608;2023-07-08T03:49:20;100190.09;;;18.33
23992;BMP280;12205;50.600;4.608;2023-07-08T03:51:52;100193.66;;;18.26
23992;BMP280;12205;50.600;4.608;2023-07-08T03:54:24;100189.84;;;18.24
23992;BMP280;12205;50.600;4.608;2023-07-08T03:56:54;100188.28;;;18.23
23992;BMP280;12205;50.600;4.608;2023-07-08T03:59:24;100203.00;;;18.22
23992;BMP280;12205;50.600;4.608;2023-07-08T04:01:53;100208.44;;;18.22
23992;BMP280;12205;50.600;4.608;2023-07-08T04:04:20;100196.09;;;18.21
23992;BMP280;12205;50.600;4.608;2023-07-08T04:06:47;100198.78;;;18.21
23992;BMP280;12205;50.600;4.608;2023-07-08T04:09:16;100201.91;;;18.19
23992;BMP280;12205;50.600;4.608;2023-07-08T04:11:44;100203.81;;;18.19
23992;BMP280;12205;50.600;4.608;2023-07-08T04:14:11;100198.41;;;18.19
23992;BMP280;12205;50.600;4.608;2023-07-08T04:16:48;100205.38;;;18.20
23992;BMP280;12205;50.600;4.608;2023-07-08T04:19:17;100198.41;;;18.19
23992;BMP280;12205;50.600;4.608;2023-07-08T04:21:45;100208.47;;;18.18
23992;BMP280;12205;50.600;4.608;2023-07-08T04:24:14;100197.66;;;18.18
23992;BMP280;12205;50.600;4.608;2023-07-08T04:26:46;100204.59;;;18.19
23992;BMP280;12205;50.600;4.608;2023-07-08T04:29:18;100200.72;;;18.20
23992;BMP280;12205;50.600;4.608;2023-07-08T04:31:46;100201.50;;;18.21
23992;BMP280;12205;50.600;4.608;2023-07-08T04:34:14;100194.53;;;18.20
23992;BMP280;12205;50.600;4.608;2023-07-08T04:36:42;100205.38;;;18.20
23992;BMP280;12205;50.600;4.608;2023-07-08T04:39:10;100197.59;;;18.22
23992;BMP280;12205;50.600;4.608;2023-07-08T04:41:38;100210.72;;;18.23
23992;BMP280;12205;50.600;4.608;2023-07-08T04:44:08;100207.63;;;18.25
23992;BMP280;12205;50.600;4.608;2023-07-08T04:46:39;100202.53;;;18.27
23992;BMP280;12205;50.600;4.608;2023-07-08T04:49:08;100202.91;;;18.29
23992;BMP280;12205;50.600;4.608;2023-07-08T04:51:37;100204.78;;;18.32
23992;BMP280;12205;50.600;4.608;2023-07-08T04:54:05;100200.50;;;18.35
23992;BMP280;12205;50.600;4.608;2023-07-08T04:56:38;100204.31;;;18.37
23992;BMP280;12205;50.600;4.608;2023-07-08T04:59:08;100207.38;;;18.39
23992;BMP280;12205;50.600;4.608;2023-07-08T05:01:35;100191.84;;;18.43
23992;BMP280;12205;50.600;4.608;2023-07-08T05:04:03;100201.81;;;18.46
23992;BMP280;12205;50.600;4.608;2023-07-08T05:06:31;100202.53;;;18.51
23992;BMP280;12205;50.600;4.608;2023-07-08T05:08:58;100201.72;;;18.54
23992;BMP280;12205;50.600;4.608;2023-07-08T05:11:25;100195.47;;;18.57
23992;BMP280;12205;50.600;4.608;2023-07-08T05:13:52;100195.00;;;18.62
23992;BMP280;12205;50.600;4.608;2023-07-08T05:16:21;100189.09;;;18.67
23992;BMP280;12205;50.600;4.608;2023-07-08T05:18:48;100190.59;;;18.72
23992;BMP280;12205;50.600;4.608;2023-07-08T05:21:16;100181.19;;;18.76
23992;BMP280;12205;50.600;4.608;2023-07-08T05:23:44;100188.00;;;18.84
23992;BMP280;12205;50.600;4.608;2023-07-08T05:26:12;100190.25;;;18.90
23992;BMP280;12205;50.600;4.608;2023-07-08T05:28:39;100189.78;;;18.95
23992;BMP280;12205;50.600;4.608;2023-07-08T05:31:06;100188.44;;;19.03
23992;BMP280;12205;50.600;4.608;2023-07-08T05:33:35;100192.94;;;19.10
23992;BMP280;12205;50.600;4.608;2023-07-08T05:36:03;100182.72;;;19.17
23992;BMP280;12205;50.600;4.608;2023-07-08T05:38:30;100179.88;;;19.24
23992;BMP280;12205;50.600;4.608;2023-07-08T05:40:58;100183.97;;;19.33
23992;BMP280;12205;50.600;4.608;2023-07-08T05:43:26;100192.31;;;19.42
23992;BMP280;12205;50.600;4.608;2023-07-08T05:45:58;100193.66;;;19.50
23992;BMP280;12205;50.600;4.608;2023-07-08T05:48:26;100184.19;;;19.58
23992;BMP280;12205;50.600;4.608;2023-07-08T05:50:55;100178.63;;;19.65
23992;BMP280;12205;50.600;4.608;2023-07-08T05:53:22;100182.69;;;19.74
23992;BMP280;12205;50.600;4.608;2023-07-08T05:55:51;100184.72;;;19.86
23992;BMP280;12205;50.600;4.608;2023-07-08T05:58:18;100191.09;;;19.96
23992;BMP280;12205;50.600;4.608;2023-07-08T06:00:45;100188.56;;;20.05
23992;BMP280;12205;50.600;4.608;2023-07-08T06:03:12;100185.56;;;20.16
23992;BMP280;12205;50.600;4.608;2023-07-08T06:05:39;100184.13;;;20.28
23992;BMP280;12205;50.600;4.608;2023-07-08T06:08:08;100187.31;;;20.39
23992;BMP280;12205;50.600;4.608;2023-07-08T06:10:41;100182.69;;;20.52
23992;BMP280;12205;50.600;4.608;2023-07-08T06:13:09;100180.03;;;20.65
23992;BMP280;12205;50.600;4.608;2023-07-08T06:15:37;100180.50;;;20.76
23992;BMP280;12205;50.600;4.608;2023-07-08T06:18:04;100187.94;;;20.89
23992;BMP280;12205;50.600;4.608;2023-07-08T06:20:31;100190.75;;;20.98
23992;BMP280;12205;50.600;4.608;2023-07-08T06:22:58;100195.16;;;21.08
23992;BMP280;12205;50.600;4.608;2023-07-08T06:25:27;100193.19;;;21.21
23992;BMP280;12205;50.600;4.608;2023-07-08T06:27:54;100202.13;;;21.35
23992;BMP280;12205;50.600;4.608;2023-07-08T06:30:21;100202.91;;;21.48
23992;BMP280;12205;50.600;4.608;2023-07-08T06:32:48;100199.75;;;21.62
23992;BMP280;12205;50.600;4.608;2023-07-08T06:35:17;100200.81;;;21.78
23992;BMP280;12205;50.600;4.608;2023-07-08T06:37:44;100200.34;;;21.92
23992;BMP280;12205;50.600;4.608;2023-07-08T06:40:12;100206.88;;;22.07
23992;BMP280;12205;50.600;4.608;2023-07-08T06:42:40;100208.03;;;22.19
23992;BMP280;12205;50.600;4.608;2023-07-08T06:45:25;100208.59;;;22.36
23992;BMP280;12205;50.600;4.608;2023-07-08T06:47:53;100212.34;;;22.52
23992;BMP280;12205;50.600;4.608;2023-07-08T06:50:20;100211.53;;;22.64
23992;BMP280;12205;50.600;4.608;2023-07-08T06:52:47;100213.78;;;22.78
23992;BMP280;12205;50.600;4.608;2023-07-08T06:55:14;100225.69;;;22.94
23992;BMP280;12205;50.600;4.608;2023-07-08T06:57:42;100219.69;;;23.08
23992;BMP280;12205;50.600;4.608;2023-07-08T07:00:11;100216.13;;;23.20
23992;BMP280;12205;50.600;4.608;2023-07-08T07:02:39;100209.50;;;23.30
23992;BMP280;12205;50.600;4.608;2023-07-08T07:05:07;100218.16;;;23.47
23992;BMP280;12205;50.600;4.608;2023-07-08T07:07:34;100225.50;;;23.60
23992;BMP280;12205;50.600;4.608;2023-07-08T07:10:02;100226.56;;;23.71
23992;BMP280;12205;50.600;4.608;2023-07-08T07:12:29;100240.56;;;23.83
23992;BMP280;12205;50.600;4.608;2023-07-08T07:14:57;100244.53;;;23.91
23992;BMP280;12205;50.600;4.608;2023-07-08T07:17:25;100251.38;;;24.05
23992;BMP280;12205;50.600;4.608;2023-07-08T07:19:53;100241.97;;;24.15
23992;BMP280;12205;50.600;4.608;2023-07-08T07:22:20;100236.06;;;24.26
23992;BMP280;12205;50.600;4.608;2023-07-08T07:24:47;100236.50;;;24.33
23992;BMP280;12205;50.600;4.608;2023-07-08T07:27:14;100236.03;;;24.44
23992;BMP280;12205;50.600;4.608;2023-07-08T07:29:44;100236.03;;;24.53
23992;BMP280;12205;50.600;4.608;2023-07-08T07:32:14;100238.75;;;24.63
23992;BMP280;12205;50.600;4.608;2023-07-08T07:34:42;100235.38;;;24.77
23992;BMP280;12205;50.600;4.608;2023-07-08T07:37:12;100235.69;;;24.88
23992;BMP280;12205;50.600;4.608;2023-07-08T07:39:40;100227.16;;;24.95
23992;BMP280;12205;50.600;4.608;2023-07-08T07:42:09;100235.63;;;25.07
23992;BMP280;12205;50.600;4.608;2023-07-08T07:44:36;100241.03;;;25.16
23992;BMP280;12205;50.600;4.608;2023-07-08T07:47:06;100244.66;;;25.22
23992;BMP280;12205;50.600;4.608;2023-07-08T07:49:35;100240.66;;;25.32
23992;BMP280;12205;50.600;4.608;2023-07-08T07:52:03;100248.84;;;25.42
23992;BMP280;12205;50.600;4.608;2023-07-08T07:54:30;100242.09;;;25.52
23992;BMP280;12205;50.600;4.608;2023-07-08T07:56:57;100240.81;;;25.62
23992;BMP280;12205;50.600;4.608;2023-07-08T07:59:25;100240.47;;;25.69
23992;BMP280;12205;50.600;4.608;2023-07-08T08:01:52;100247.09;;;25.77
23992;BMP280;12205;50.600;4.608;2023-07-08T08:04:19;100251.66;;;25.80
23992;BMP280;12205;50.600;4.608;2023-07-08T08:06:48;100238.84;;;25.87
23992;BMP280;12205;50.600;4.608;2023-07-08T08:09:15;100233.88;;;26.00
23992;BMP280;12205;50.600;4.608;2023-07-08T08:11:42;100233.59;;;26.13
23992;BMP280;12205;50.600;4.608;2023-07-08T08:14:09;100236.25;;;26.22
23992;BMP280;12205;50.600;4.608;2023-07-08T08:16:36;100238.16;;;26.31
23992;BMP280;12205;50.600;4.608;2023-07-08T08:19:04;100247.06;;;26.40
23992;BMP280;12205;50.600;4.608;2023-07-08T08:21:31;100242.91;;;26.45
23992;BMP280;12205;50.600;4.608;2023-07-08T08:23:59;100252.75;;;26.52
23992;BMP280;12205;50.600;4.608;2023-07-08T08:26:27;100239.22;;;26.63
23992;BMP280;12205;50.600;4.608;2023-07-08T08:28:55;100239.59;;;26.71
23992;BMP280;12205;50.600;4.608;2023-07-08T08:31:22;100237.97;;;26.79
23992;BMP280;12205;50.600;4.608;2023-07-08T08:33:51;100238.59;;;26.89
23992;BMP280;12205;50.600;4.608;2023-07-08T08:36:18;100237.75;;;26.97
23992;BMP280;12205;50.600;4.608;2023-07-08T08:38:46;100233.41;;;27.05
23992;BMP280;12205;50.600;4.608;2023-07-08T08:41:30;100232.25;;;27.12
23992;BMP280;12205;50.600;4.608;2023-07-08T08:44:00;100238.09;;;27.20
23992;BMP280;12205;50.600;4.608;2023-07-08T08:46:36;100235.63;;;27.22
23992;BMP280;12205;50.600;4.608;2023-07-08T08:49:16;100241.47;;;27.30
23992;BMP280;12205;50.600;4.608;2023-07-08T08:51:43;100248.25;;;27.34
23992;BMP280;12205;50.600;4.608;2023-07-08T08:54:10;100250.31;;;27.39
23992;BMP280;12205;50.600;4.608;2023-07-08T08:56:48;100252.94;;;27.48
23992;BMP280;12205;50.600;4.608;2023-07-08T08:59:28;100252.31;;;27.59
23992;BMP280;12205;50.600;4.608;2023-07-08T09:01:58;100250.19;;;27.69
23992;BMP280;12205;50.600;4.608;2023-07-08T09:04:33;100248.06;;;27.79
23992;BMP280;12205;50.600;4.608;2023-07-08T09:07:13;100255.38;;;27.87
23992;BMP280;12205;50.600;4.608;2023-07-08T09:09:51;100251.25;;;27.98
23992;BMP280;12205;50.600;4.608;2023-07-08T09:12:26;100243.34;;;28.05
23992;BMP280;12205;50.600;4.608;2023-07-08T09:14:57;100245.94;;;28.14
23992;BMP280;12205;50.600;4.608;2023-07-08T09:17:30;100243.50;;;28.22
23992;BMP280;12205;50.600;4.608;2023-07-08T09:20:06;100252.84;;;28.30
23992;BMP280;12205;50.600;4.608;2023-07-08T09:22:43;100245.19;;;28.40
23992;BMP280;12205;50.600;4.608;2023-07-08T09:25:25;100248.53;;;28.50
23992;BMP280;12205;50.600;4.608;2023-07-08T09:27:54;100249.34;;;28.62
23992;BMP280;12205;50.600;4.608;2023-07-08T09:30:24;100242.66;;;28.68
23992;BMP280;12205;50.600;4.608;2023-07-08T09:32:52;100242.97;;;28.76
23992;BMP280;12205;50.600;4.608;2023-07-08T09:35:23;100247.25;;;28.83
23992;BMP280;12205;50.600;4.608;2023-07-08T09:37:52;100249.06;;;28.91
23992;BMP280;12205;50.600;4.608;2023-07-08T09:40:22;100251.09;;;28.96
23992;BMP280;12205;50.600;4.608;2023-07-08T09:42:57;100249.88;;;29.03
23992;BMP280;12205;50.600;4.608;2023-07-08T09:45:25;100249.44;;;29.10
23992;BMP280;12205;50.600;4.608;2023-07-08T09:47:55;100258.47;;;29.16
23992;BMP280;12205;50.600;4.608;2023-07-08T09:50:26;100252.50;;;29.24
23992;BMP280;12205;50.600;4.608;2023-07-08T09:52:56;100259.06;;;29.32
23992;BMP280;12205;50.600;4.608;2023-07-08T09:55:25;100258.09;;;29.40
23992;BMP280;12205;50.600;4.608;2023-07-08T09:57:58;100272.16;;;29.48
23992;BMP280;12205;50.600;4.608;2023-07-08T10:00:38;100268.41;;;29.57
23992;BMP280;12205;50.600;4.608;2023-07-08T10:03:15;100270.97;;;29.66
23992;BMP280;12205;50.600;4.608;2023-07-08T10:05:47;100268.75;;;29.76
23992;BMP280;12205;50.600;4.608;2023-07-08T10:08:18;100271.03;;;29.83
23992;BMP280;12205;50.600;4.608;2023-07-08T10:10:48;100272.28;;;29.93
23992;BMP280;12205;50.600;4.608;2023-07-08T10:13:28;100273.81;;;30.00
23992;BMP280;12205;50.600;4.608;2023-07-08T10:16:05;100271.53;;;30.09
23992;BMP280;12205;50.600;4.608;2023-07-08T10:18:36;100261.81;;;30.20
23992;BMP280;12205;50.600;4.608;2023-07-08T10:21:20;100265.78;;;30.30
23992;BMP280;12205;50.600;4.608;2023-07-08T10:23:56;100272.34;;;30.38
23992;BMP280;12205;50.600;4.608;2023-07-08T10:26:31;100268.59;;;30.47
23992;BMP280;12205;50.600;4.608;2023-07-08T10:29:20;100270.34;;;30.56
23992;BMP280;12205;50.600;4.608;2023-07-08T10:31:58;100269.56;;;30.66
23992;BMP280;12205;50.600;4.608;2023-07-08T10:34:40;100270.28;;;30.78
23992;BMP280;12205;50.600;4.608;2023-07-08T10:37:22;100267.00;;;30.91
23992;BMP280;12205;50.600;4.608;2023-07-08T10:40:28;100268.22;;;31.07
23992;BMP280;12205;50.600;4.608;2023-07-08T10:43:15;100268.97;;;31.18
23992;BMP280;12205;50.600;4.608;2023-07-08T10:45:58;100270.69;;;31.27
23992;BMP280;12205;50.600;4.608;2023-07-08T10:48:54;100272.88;;;31.34
23992;BMP280;12205;50.600;4.608;2023-07-08T10:51:33;100273.06;;;31.48
23992;BMP280;12205;50.600;4.608;2023-07-08T10:54:38;100266.47;;;31.62
23992;BMP280;12205;50.600;4.608;2023-07-08T10:57:32;100263.88;;;31.75
23992;BMP280;12205;50.600;4.608;2023-07-08T11:00:13;100263.53;;;31.90
23992;BMP280;12205;50.600;4.608;2023-07-08T11:03:06;100270.22;;;32.06
23992;BMP280;12205;50.600;4.608;2023-07-08T11:05:43;100264.31;;;32.21
23992;BMP280;12205;50.600;4.608;2023-07-08T11:08:18;100265.44;;;32.37
23992;BMP280;12205;50.600;4.608;2023-07-08T11:10:53;100267.84;;;32.51
23992;BMP280;12205;50.600;4.608;2023-07-08T11:13:28;100264.88;;;32.68
23992;BMP280;12205;50.600;4.608;2023-07-08T11:16:02;100257.16;;;32.86
23992;BMP280;12205;50.600;4.608;2023-07-08T11:18:42;100261.22;;;33.04
23992;BMP280;12205;50.600;4.608;2023-07-08T11:21:16;100259.72;;;33.22
23992;BMP280;12205;50.600;4.608;2023-07-08T11:23:50;100256.19;;;33.40
23992;BMP280;12205;50.600;4.608;2023-07-08T11:26:26;100253.19;;;33.57
23992;BMP280;12205;50.600;4.608;2023-07-08T11:29:00;100254.63;;;33.77
23992;BMP280;12205;50.600;4.608;2023-07-08T11:31:31;100251.81;;;33.96
23992;BMP280;12205;50.600;4.608;2023-07-08T11:34:01;100250.06;;;34.12
23992;BMP280;12205;50.600;4.608;2023-07-08T11:36:32;100252.00;;;34.30
23992;BMP280;12205;50.600;4.608;2023-07-08T11:39:00;100255.41;;;34.49
23992;BMP280;12205;50.600;4.608;2023-07-08T11:41:31;100245.56;;;34.75
23992;BMP280;12205;50.600;4.608;2023-07-08T11:44:03;100247.47;;;34.93
23992;BMP280;12205;50.600;4.608;2023-07-08T11:46:32;100233.56;;;35.07
23992;BMP280;12205;50.600;4.608;2023-07-08T11:49:05;100225.81;;;35.13
23992;BMP280;12205;50.600;4.608;2023-07-08T11:51:41;100233.84;;;35.16
23992;BMP280;12205;50.600;4.608;2023-07-08T11:54:14;100231.78;;;35.17
23992;BMP280;12205;50.600;4.608;2023-07-08T11:57:00;100239.53;;;35.11
23992;BMP280;12205;50.600;4.608;2023-07-08T11:59:32;100269.44;;;35.05
23992;BMP280;12205;50.600;4.608;2023-07-08T12:02:11;100287.16;;;33.95
23992;BMP280;12205;50.600;4.608;2023-07-08T12:04:58;100266.13;;;32.18
23992;BMP280;12205;50.600;4.608;2023-07-08T12:07:37;100297.59;;;31.15
23992;BMP280;12205;50.600;4.608;2023-07-08T12:10:16;100315.47;;;30.36
23992;BMP280;12205;50.600;4.608;2023-07-08T12:12:46;100321.59;;;29.74
23992;BMP280;12205;50.600;4.608;2023-07-08T12:15:21;100306.28;;;29.19
23992;BMP280;12205;50.600;4.608;2023-07-08T12:17:50;100300.63;;;28.59
23992;BMP280;12205;50.600;4.608;2023-07-08T12:20:24;100282.38;;;28.09
23992;BMP280;12205;50.600;4.608;2023-07-08T12:22:52;100272.97;;;27.75
23992;BMP280;12205;50.600;4.608;2023-07-08T12:25:26;100285.78;;;27.78
23992;BMP280;12205;50.600;4.608;2023-07-08T12:27:53;100303.63;;;28.09
23992;BMP280;12205;50.600;4.608;2023-07-08T12:30:20;100312.94;;;28.17
23992;BMP280;12205;50.600;4.608;2023-07-08T12:32:47;100329.94;;;28.16
23992;BMP280;12205;50.600;4.608;2023-07-08T12:35:24;100332.19;;;28.17
23992;BMP280;12205;50.600;4.608;2023-07-08T12:37:54;100322.50;;;28.48
23992;BMP280;12205;50.600;4.608;2023-07-08T12:40:22;100307.97;;;29.05
23992;BMP280;12205;50.600;4.608;2023-07-08T12:42:49;100314.09;;;29.80
23992;BMP280;12205;50.600;4.608;2023-07-08T12:45:21;100321.50;;;30.57
23992;BMP280;12205;50.600;4.608;2023-07-08T12:47:49;100312.13;;;31.22
23992;BMP280;12205;50.600;4.608;2023-07-08T12:50:16;100310.03;;;31.92
23992;BMP280;12205;50.600;4.608;2023-07-08T12:52:46;100317.13;;;32.53
23992;BMP280;12205;50.600;4.608;2023-07-08T12:55:15;100336.88;;;32.93
23992;BMP280;12205;50.600;4.608;2023-07-08T12:57:47;100320.91;;;33.24
23992;BMP280;12205;50.600;4.608;2023-07-08T13:00:24;100323.47;;;33.59
23992;BMP280;12205;50.600;4.608;2023-07-08T13:02:58;100327.47;;;33.96
23992;BMP280;12205;50.600;4.608;2023-07-08T13:05:26;100319.28;;;34.49
23992;BMP280;12205;50.600;4.608;2023-07-08T13:07:56;100315.53;;;35.13
23992;BMP280;12205;50.600;4.608;2023-07-08T13:10:26;100315.41;;;35.74
23992;BMP280;12205;50.600;4.608;2023-07-08T13:12:59;100323.81;;;36.24
23992;BMP280;12205;50.600;4.608;2023-07-08T13:15:33;100319.28;;;36.70
23992;BMP280;12205;50.600;4.608;2023-07-08T13:18:02;100317.59;;;37.11
23992;BMP280;12205;50.600;4.608;2023-07-08T13:20:30;100315.47;;;37.55
23992;BMP280;12205;50.600;4.608;2023-07-08T13:23:02;100311.94;;;38.01
23992;BMP280;12205;50.600;4.608;2023-07-08T13:25:32;100311.81;;;38.47
23992;BMP280;12205;50.600;4.608;2023-07-08T13:28:01;100309.09;;;38.80
23992;BMP280;12205;50.600;4.608;2023-07-08T13:30:30;100303.59;;;38.97
23992;BMP280;12205;50.600;4.608;2023-07-08T13:32:59;100298.94;;;38.99
23992;BMP280;12205;50.600;4.608;2023-07-08T13:35:35;100301.97;;;38.94
23992;BMP280;12205;50.600;4.608;2023-07-08T13:38:04;100307.97;;;38.83
23992;BMP280;12205;50.600;4.608;2023-07-08T13:40:32;100309.88;;;38.65
23992;BMP280;12205;50.600;4.608;2023-07-08T13:43:00;100313.31;;;38.48
23992;BMP280;12205;50.600;4.608;2023-07-08T13:45:32;100311.50;;;38.27
23992;BMP280;12205;50.600;4.608;2023-07-08T13:48:10;100298.34;;;38.05
23992;BMP280;12205;50.600;4.608;2023-07-08T13:50:47;100298.53;;;37.92
23992;BMP280;12205;50.600;4.608;2023-07-08T13:53:22;100300.19;;;37.95
23992;BMP280;12205;50.600;4.608;2023-07-08T13:55:58;100292.53;;;38.03
23992;BMP280;12205;50.600;4.608;2023-07-08T13:58:29;100293.25;;;38.26
23992;BMP280;12205;50.600;4.608;2023-07-08T14:00:57;100300.19;;;38.73
23992;BMP280;12205;50.600;4.608;2023-07-08T14:03:25;100305.47;;;39.27
23992;BMP280;12205;50.600;4.608;2023-07-08T14:05:52;100310.22;;;39.84
23992;BMP280;12205;50.600;4.608;2023-07-08T14:08:20;100310.91;;;40.44
23992;BMP280;12205;50.600;4.608;2023-07-08T14:10:48;100314.28;;;40.97
23992;BMP280;12205;50.600;4.608;2023-07-08T14:13:16;100308.13;;;41.45
23992;BMP280;12205;50.600;4.608;2023-07-08T14:15:44;100300.06;;;41.98
23992;BMP280;12205;50.600;4.608;2023-07-08T14:18:12;100309.91;;;42.47